Aviation Digital Data Service (ADDS)

Output produced by METARs form (1120 UTC 19 January 2019)
found at http://www.aviationweather.gov/metar/data/
 
KEET 191117Z AUTO 16004KT 4SM BR OVC003 13/13 A2983 RMK AO2 RAE17 P0002 T01330133
KEET 190520Z 1906/2006 10003KT 6SM BR BKN025 OVC200 
     FM190800 13005KT 6SM BR OVC015 
     FM191000 15006KT 4SM -DZ BR OVC007 WS020/20042KT 
     FM191200 15009KT 2SM -DZ BR OVC003 WS020/20042KT 
     FM191600 18014G22KT 6SM SHRA BR OVC015 
     PROB30 1918/1922 2SM TSRA BR SCT015 OVC025CB
       
K8A0 191115Z AUTO 17009G19KT 5SM RA OVC006 12/11 A2980 RMK AO2 P0001
KALX 191115Z AUTO 14004KT 1 3/4SM BR OVC002 13/13 A2987 RMK AO2 LTG DSNT N T01280126
K79J 191056Z AUTO 12003KT 1/2SM FG VV002 17/16 A2988 RMK AO2 SLP114 T01720161
KANB 191053Z AUTO 10006KT 10SM BKN017 BKN060 BKN080 13/11 A2985 RMK AO2 SLP109 T01330111
KANB 190520Z 1906/2006 07003KT P6SM FEW008 FEW025 OVC200 
     FM190800 09006KT 4SM BR OVC007 
     FM191000 11007KT 4SM -DZ BR OVC007 
     FM191200 12008KT 4SM -DZ BR OVC005 WS020/20039KT 
     FM191600 19014G22KT 6SM SHRA BR OVC025 
     PROB30 1919/1924 2SM TSRA BR SCT015 OVC025CB
       
KAUO 191056Z AUTO 15006KT OVC003 12/ A2991 RMK AO2 SLP153 T0122 PWINO $
KEKY 191056Z AUTO VRB05KT 3SM -RA BR OVC002 13/13 A2983 RMK AO2 RAE14B51 SLP119 P0001 T01330133
KBHM 191053Z 16006KT 7SM OVC005 14/13 A2984 RMK AO2 RAE19 SLP100 P0000 T01390128
KBHM 190520Z 1906/2006 07003KT 6SM BR BKN025 OVC200 
     FM190800 14006KT 6SM BR OVC015 
     FM191000 15008KT 4SM -DZ BR OVC007 WS020/20042KT 
     TEMPO 1911/1915 4SM -DZ BR OVC003 
     FM191500 18014G22KT 6SM SHRA BR OVC015 
     PROB30 1918/1922 2SM TSRA BR SCT015 OVC025CB
       
KDCU 191113Z AUTO 11006KT 3SM +RA BR FEW004 BKN015 OVC023 12/11 A2975 RMK AO2 P0004 T01170111
KDYA 191115Z AUTO 16007KT 10SM OVC009 17/16 A2978 RMK AO2 T01650155
KDHN 191053Z AUTO 16008KT 1/2SM FG VV002 16/15 A2995 RMK AO2 SLP140 T01560150
KDHN 190959Z 1910/2006 15004KT 1SM BR OVC002 
     FM191300 14005KT 2SM BR SCT004 OVC015 
     FM191500 18014KT P6SM VCSH OVC050 
     FM191800 19015G25KT 6SM -SHRA VCTS OVC035CB 
     FM192100 20018G25KT 3SM TSRA OVC025CB
       
KEDN 191115Z AUTO 16009KT 3/4SM BR OVC002 16/16 A2990 RMK AO2 T01550155
KEUF 191101Z AUTO 16006KT 3SM BR OVC002 15/15 A2990 RMK AO2 T01500150
KGZH 191053Z AUTO 17008KT 8SM OVC003 18/16 A2986 RMK AO2 RAB12E27 SLP110 P0000 T01780161
KCQF 191115Z AUTO 16010KT 10SM -RA SCT006 BKN014 BKN120 17/17 A2985 RMK AO2
K0J4 191111Z AUTO 17009KT 10SM OVC005 17/16 A2991 RMK AO2 T01720161
K4A9 191115Z AUTO 12011G16KT 080V150 7SM -VCTSRA OVC004 11/11 A2981 RMK AO2 LTG DSNT NW T01150108
KGAD 191056Z AUTO 04007KT 4SM -RA BR OVC008 11/11 A2983 RMK AO2 RAB49 SLP106 P0000 T01060106
KPRN 191056Z AUTO 16005KT 1/2SM FG VV001 16/14 A2985 RMK AO2 SLP106 T01560139 $
KJKA 191115Z AUTO 14007KT 10SM SCT019 SCT100 SCT120 18/04 A2987 RMK AO2 T01800040
K1M4 191056Z AUTO 18008KT 5SM RA BR OVC004 13/12 A2976 RMK AO2 LTG DSNT NW SLP098 P0006 T01280122
KHSV 191114Z AUTO 13006KT 3SM RA BR BKN008 OVC016 12/12 A2976 RMK AO2 LTG DSNT E P0016 T01170117
KHSV 190906Z 1909/2006 10011KT 5SM -SHRA BR VCTS BKN015CB OVC025 
     FM191500 20016KT 4SM -SHRA BR VCTS BKN007 OVC015CB 
     FM192200 22013KT 4SM BR OVC007 
     FM200100 30012KT P6SM OVC007
       
KMDQ 191115Z AUTO 15007KT 3 1/2SM VCTSRA BR SCT006 BKN016 OVC023 12/11 A2978 RMK A02 LTG DSNT SE AND W P0005 T01170111
KJFX 191115Z AUTO 16009G15KT 3SM BR 15/15 A2976 RMK AO2 LTG DSNT NE AND SW PWINO
KA08 191055Z AUTO 18008G14KT 1 3/4SM BR OVC002 14/14 A2981 RMK AO2 T01400140
KBFM 191053Z 16007KT 8SM OVC002 17/16 A2986 RMK AO2 SLP110 T01670161
KBFM 190601Z 1906/2006 18004KT 6SM BR OVC004 
     FM191200 17014KT P6SM VCSH BKN006 OVC015 WS020/21045KT 
     FM191500 18016G24KT P6SM VCSH OVC015 WS020/21045KT 
     TEMPO 1918/1922 VRB20G30KT 3SM TSRA OVC015CB 
     FM192200 27020G28KT P6SM OVC015
       
KMOB 191056Z AUTO 17009KT 10SM BKN007 OVC018 18/17 A2984 RMK AO2 SLP102 T01780172
KMOB 190600Z 1906/2006 14005KT 6SM BR BKN007 OVC015 
     FM191200 17012KT P6SM VCSH BKN007 OVC015 WS020/21045KT 
     FM191500 18015G22KT P6SM VCSH OVC015 WS020/21045KT 
     TEMPO 1918/1922 VRB20G30KT 3SM TSRA OVC015CB 
     FM192200 27020G28KT P6SM OVC015
       
KMGM 191114Z AUTO 14007KT 5SM BR OVC004 14/14 A2985 RMK AO2 T01440139 TSNO
KMGM 190520Z 1906/2006 12004KT 4SM BR BKN015 
     FM190900 14003KT 4SM BR OVC015 
     FM191000 15006KT 4SM BR OVC006 
     FM191500 16012G22KT P6SM VCSH OVC015 
     FM191700 19015G25KT 6SM SHRA BR OVC025 
     PROB30 1921/2001 3SM TSRA BR OVC012CB
       
KMSL 191053Z AUTO 14008KT 7SM -RA BKN006 OVC013 12/11 A2973 RMK AO2 LTG DSNT S CIG 003V009 SLP065 P0005 T01220111
KMSL 190739Z 1908/2006 16010KT 4SM -RA BR VCTS BKN020CB OVC030 
     TEMPO 1908/1911 2SM -TSRA BR BKN009CB 
     FM191400 21015KT 4SM -SHRA BR VCTS BKN008 OVC015CB 
     FM192100 24013KT 4SM BR OVC007 
     FM200000 31012KT P6SM OVC007
       
KPLR 191115Z AUTO 00000KT 9SM OVC008 14/14 A2983 RMK A01
K1A9 191115Z AUTO 15003KT 4SM BR OVC004 13/13 A2985 RMK AO2 T01300130
K4A6 191115Z AUTO VRB06KT 5SM VCTS DZ FEW045 13/13 A2979 RMK AO2 LTG DSNT W AND NW
KSEM 191115Z AUTO 17010KT 10SM 16/15 A2983 RMK AO2
KSCD 191115Z AUTO 15006KT 7SM -RA OVC006 14/14 A2984 RMK AO2 LTG DSNT NW P0003 T01360136
KASN 191115Z AUTO 14003KT 7SM -RA OVC010 14/13 A2984 RMK AO2 LTG DSNT N T01350130
KASN 190520Z 1906/2006 07003KT P6SM FEW008 FEW025 OVC200 
     FM190800 09006KT 4SM BR OVC007 
     FM191000 11007KT 4SM -DZ BR OVC007 
     FM191200 12008KT 4SM -DZ BR OVC005 WS020/20039KT 
     FM191600 19014G22KT 6SM SHRA BR OVC025 
     PROB30 1919/1924 2SM TSRA BR SCT015 OVC025CB
       
KTOI 191103Z AUTO 17005KT 1 1/4SM BR OVC002 14/14 A2989 RMK AO2 T01440144
KTOI 190520Z 1906/2006 12004KT 4SM BR BKN015 
     FM190800 14003KT 2SM BR OVC003 
     FM191000 15006KT 3/4SM BR OVC002 
     FM191400 16012G22KT P6SM VCSH OVC015 
     FM191700 19015G25KT 6SM SHRA BR OVC025 
     PROB30 1921/2001 3SM TSRA BR OVC012CB
       
KTCL 191053Z AUTO 19012KT 8SM OVC006 16/14 A2979 RMK AO2 SLP085 T01610144
KTCL 190520Z 1906/2006 11003KT 6SM BR BKN025 OVC200 
     FM190800 12005KT 6SM BR OVC015 
     FM191000 14006KT 4SM -DZ BR OVC007 WS020/20042KT 
     FM191200 15009KT 4SM -DZ BR OVC004 WS020/20042KT 
     FM191600 18014G22KT 6SM SHRA BR OVC015 
     PROB30 1916/1921 2SM TSRA BR SCT015 OVC025CB